Terminal Aerodrome Forecast
Issued by NWS

Home | Current Version | Previous Version | Text Only | Print | Product List | Glossary On
Versions: 1 2 3 4 5 6 7 8 9 10 11 12 13 14 15 16 17 18 19 20 21
000
FTUS41 KGYX 252320
TAFLEB
TAF
KLEB 252320Z 2600/2624 VRB05G18KT P6SM OVC018 WS020/10045KT
     FM260200 VRB03KT 2SM RA BR OVC007 WS020/10045KT
     FM261000 36003KT 4SM -RA BR OVC012
     FM261800 34003KT P6SM OVC007=

USA.gov is the U.S. government's official web portal to all federal, state and local government web resources and services.